createdAt,value
2023-04-16T00:01:34.795Z,93.81
2023-04-16T00:04:03.262Z,93.64
2023-04-16T00:06:30.238Z,93.81
2023-04-16T00:08:56.760Z,93.62
2023-04-16T00:11:23.445Z,93.54
2023-04-16T00:13:49.944Z,94.04
2023-04-16T00:16:16.529Z,93.57
2023-04-16T00:18:43.091Z,93.58
2023-04-16T00:21:11.025Z,93.85
2023-04-16T00:23:37.888Z,94.59
2023-04-16T00:26:04.775Z,94.16
2023-04-16T00:28:31.315Z,93.97
2023-04-16T00:30:58.261Z,94.54
2023-04-16T00:33:24.816Z,95.09
2023-04-16T00:35:51.412Z,95.09
2023-04-16T00:38:19.517Z,95.28
2023-04-16T00:40:47.270Z,94.59
2023-04-16T00:43:21.620Z,94.91
2023-04-16T00:45:48.929Z,93.92
2023-04-16T00:48:15.857Z,94.74
2023-04-16T00:50:42.575Z,95.14
2023-04-16T00:53:09.499Z,94.82
2023-04-16T00:55:39.431Z,94.99
2023-04-16T00:58:06.017Z,94.91
2023-04-16T01:00:32.677Z,94.89
2023-04-16T01:02:59.697Z,94.97
2023-04-16T01:05:26.643Z,94.82
2023-04-16T01:07:53.346Z,96.04
2023-04-16T01:10:20.063Z,95.05
2023-04-16T01:12:47.947Z,95.66
2023-04-16T01:15:14.463Z,95.63
2023-04-16T01:17:41.180Z,95.37
2023-04-16T01:20:08.237Z,96.43
2023-04-16T01:22:36.124Z,97.37
2023-04-16T01:25:02.790Z,97.30
2023-04-16T01:27:29.419Z,97.29
2023-04-16T01:29:55.941Z,97.07
2023-04-16T01:32:31.901Z,97.22
2023-04-16T01:34:58.601Z,96.67
2023-04-16T01:37:25.137Z,96.55
2023-04-16T01:39:53.415Z,97.57
2023-04-16T01:42:19.917Z,97.11
2023-04-16T01:44:47.164Z,97.65
2023-04-16T01:47:13.761Z,97.81
2023-04-16T01:49:40.367Z,97.34
2023-04-16T01:52:07.151Z,97.14
2023-04-16T01:54:33.774Z,97.56
2023-04-16T01:57:01.700Z,97.79
2023-04-16T01:59:28.313Z,97.22
2023-04-16T02:01:55.618Z,97.33
2023-04-16T02:04:22.316Z,97.11
2023-04-16T02:06:48.866Z,97.25
2023-04-16T02:09:15.503Z,97.98
2023-04-16T02:11:42.060Z,97.89
2023-04-16T02:14:10.036Z,98.31
2023-04-16T02:16:36.614Z,98.46
2023-04-16T02:19:19.596Z,98.56
2023-04-16T02:21:46.272Z,98.55
2023-04-16T02:24:12.823Z,98.41
2023-04-16T02:26:40.319Z,98.36
2023-04-16T02:29:14.368Z,98.63
2023-04-16T02:31:44.689Z,98.56
2023-04-16T02:34:12.706Z,98.81
2023-04-16T02:36:40.425Z,98.18
2023-04-16T02:39:07.084Z,98.45
2023-04-16T02:41:33.879Z,98.36
2023-04-16T02:44:00.534Z,98.90
2023-04-16T02:46:28.526Z,99.11
2023-04-16T02:48:55.081Z,99.12
2023-04-16T02:51:21.612Z,98.73
2023-04-16T02:53:48.121Z,98.95
2023-04-16T02:56:14.718Z,98.56
2023-04-16T02:58:41.289Z,98.79
2023-04-16T03:01:07.841Z,98.78
2023-04-16T03:03:35.845Z,98.44
2023-04-16T03:06:02.400Z,98.80
2023-04-16T03:08:28.982Z,98.54
2023-04-16T03:10:55.495Z,98.64
2023-04-16T03:13:22.100Z,98.25
2023-04-16T03:15:49.308Z,97.61
2023-04-16T03:18:16.168Z,97.10
2023-04-16T03:20:44.093Z,96.92
2023-04-16T03:23:11.400Z,96.64
2023-04-16T03:25:38.169Z,97.14
2023-04-16T03:28:04.764Z,97.21
2023-04-16T03:30:32.636Z,97.75
2023-04-16T03:32:59.187Z,97.52
2023-04-16T03:35:25.819Z,97.60
2023-04-16T03:37:53.686Z,97.75
2023-04-16T03:40:20.220Z,97.52
2023-04-16T03:42:46.761Z,96.95
2023-04-16T03:45:13.265Z,96.93
2023-04-16T03:47:40.036Z,96.91
2023-04-16T03:50:08.898Z,96.95
2023-04-16T03:52:36.167Z,97.13
2023-04-16T03:55:05.086Z,96.91
2023-04-16T03:57:31.788Z,96.71
2023-04-16T04:00:05.612Z,96.72
2023-04-16T04:02:40.996Z,96.91
2023-04-16T04:05:13.849Z,97.16
2023-04-16T04:07:41.057Z,97.30
2023-04-16T04:10:10.386Z,97.39
2023-04-16T04:12:40.074Z,97.52
2023-04-16T04:15:07.905Z,97.39
2023-04-16T04:17:34.467Z,97.26
2023-04-16T04:20:02.260Z,97.01
2023-04-16T04:22:30.824Z,97.84
2023-04-16T04:24:57.396Z,97.21
2023-04-16T04:27:27.180Z,96.94
2023-04-16T04:29:53.720Z,97.28
2023-04-16T04:32:21.851Z,97.75
2023-04-16T04:34:49.130Z,97.76
2023-04-16T04:37:15.754Z,98.39
2023-04-16T04:39:43.768Z,98.27
2023-04-16T04:42:12.339Z,98.20
2023-04-16T04:44:40.415Z,98.25
2023-04-16T04:47:07.984Z,98.39
2023-04-16T04:49:34.921Z,98.49
2023-04-16T04:52:03.270Z,98.29
2023-04-16T04:54:32.002Z,97.65
2023-04-16T04:56:58.933Z,98.33
2023-04-16T04:59:25.773Z,99.00
2023-04-16T05:01:53.940Z,98.79
2023-04-16T05:04:20.549Z,98.68
2023-04-16T05:06:47.082Z,98.80
2023-04-16T05:09:13.605Z,98.27
2023-04-16T05:11:42.006Z,98.53
2023-04-16T05:14:08.710Z,98.39
2023-04-16T05:16:36.377Z,98.83
2023-04-16T05:19:04.599Z,98.62
2023-04-16T05:21:31.325Z,98.27
2023-04-16T05:23:59.060Z,98.58
2023-04-16T05:26:25.605Z,98.28
2023-04-16T05:28:52.290Z,98.37
2023-04-16T05:31:18.882Z,98.29
2023-04-16T05:33:45.629Z,98.16
2023-04-16T05:36:13.504Z,97.64
2023-04-16T05:38:39.991Z,97.96
2023-04-16T05:41:06.518Z,98.11
2023-04-16T05:43:33.158Z,97.97
2023-04-16T05:45:59.701Z,97.88
2023-04-16T05:48:26.265Z,97.69
2023-04-16T05:50:52.817Z,97.58
2023-04-16T05:53:20.692Z,97.24
2023-04-16T05:55:47.554Z,97.04
2023-04-16T05:58:14.091Z,97.21
2023-04-16T06:00:40.660Z,96.94
2023-04-16T06:03:07.394Z,96.70
2023-04-16T06:05:34.213Z,96.91
2023-04-16T06:08:00.782Z,97.05
2023-04-16T06:10:28.703Z,97.20
2023-04-16T06:12:55.224Z,96.80
2023-04-16T06:15:21.718Z,96.71
2023-04-16T06:17:49.259Z,96.96
2023-04-16T06:20:16.088Z,96.81
2023-04-16T06:22:42.677Z,97.01
2023-04-16T06:25:10.296Z,95.70
2023-04-16T06:27:38.186Z,96.35
2023-04-16T06:30:06.350Z,96.53
2023-04-16T06:32:32.898Z,96.65
2023-04-16T06:34:59.627Z,97.06
2023-04-16T06:37:26.192Z,96.68
2023-04-16T06:39:52.721Z,96.94
2023-04-16T06:42:20.117Z,96.85
2023-04-16T06:44:48.023Z,96.99
2023-04-16T06:47:14.595Z,96.22
2023-04-16T06:49:41.364Z,95.92
2023-04-16T06:52:07.989Z,96.09
2023-04-16T06:54:34.591Z,96.95
2023-04-16T06:57:01.180Z,97.48
2023-04-16T06:59:27.959Z,97.94
2023-04-16T07:01:56.417Z,98.05
2023-04-16T07:04:23.795Z,98.25
2023-04-16T07:06:50.349Z,97.75
2023-04-16T07:09:16.846Z,97.95
2023-04-16T07:11:44.632Z,97.56
2023-04-16T07:14:11.267Z,97.57
2023-04-16T07:16:38.036Z,97.35
2023-04-16T07:19:06.033Z,97.25
2023-04-16T07:21:32.871Z,97.31
2023-04-16T07:23:59.358Z,97.25
2023-04-16T07:26:25.888Z,97.21
2023-04-16T07:28:52.414Z,96.74
2023-04-16T07:31:19.630Z,96.95
2023-04-16T07:33:46.262Z,97.28
2023-04-16T07:36:14.074Z,97.20
2023-04-16T07:38:40.535Z,97.08
2023-04-16T07:41:07.048Z,96.78
2023-04-16T07:43:33.510Z,96.80
2023-04-16T07:46:00.011Z,96.46
2023-04-16T07:48:26.748Z,96.40
2023-04-16T07:50:53.302Z,96.13
2023-04-16T07:53:21.199Z,95.97
2023-04-16T07:55:47.754Z,95.49
2023-04-16T07:58:14.414Z,95.68
2023-04-16T08:00:40.898Z,95.75
2023-04-16T08:03:07.660Z,95.14
2023-04-16T08:05:34.354Z,94.67
2023-04-16T08:08:00.858Z,94.91
2023-04-16T08:10:28.823Z,94.60
2023-04-16T08:12:55.327Z,95.05
2023-04-16T08:15:21.831Z,94.38
2023-04-16T08:17:48.651Z,94.17
2023-04-16T08:20:17.629Z,94.00
2023-04-16T08:22:45.844Z,93.63
2023-04-16T08:25:12.345Z,93.44
2023-04-16T08:27:40.387Z,92.73
2023-04-16T08:30:08.137Z,93.00
2023-04-16T08:32:34.933Z,92.46
2023-04-16T08:35:01.896Z,92.12
2023-04-16T08:37:28.458Z,91.39
2023-04-16T08:39:55.059Z,91.50
2023-04-16T08:42:28.938Z,90.77
2023-04-16T08:45:06.391Z,90.35
2023-04-16T08:47:35.087Z,90.35
2023-04-16T08:50:03.594Z,90.14
2023-04-16T08:52:31.199Z,90.52
2023-04-16T08:55:03.642Z,90.30
2023-04-16T08:57:37.160Z,89.45
2023-04-16T09:00:07.778Z,89.16
2023-04-16T09:02:35.009Z,88.66
2023-04-16T09:05:05.277Z,86.05
2023-04-16T09:07:33.303Z,86.61
2023-04-16T09:10:00.581Z,87.45
2023-04-16T09:12:27.414Z,87.61
2023-04-16T09:14:54.733Z,87.81
2023-04-16T09:17:22.677Z,86.83
2023-04-16T09:19:49.321Z,86.73
2023-04-16T09:22:16.037Z,86.82
2023-04-16T09:24:42.547Z,86.20
2023-04-16T09:27:09.156Z,86.26
2023-04-16T09:29:36.656Z,85.45
2023-04-16T09:32:04.187Z,85.53
2023-04-16T09:34:33.559Z,84.39
2023-04-16T09:37:15.597Z,83.16
2023-04-16T09:39:42.720Z,82.20
2023-04-16T09:42:09.301Z,81.75
2023-04-16T09:44:36.660Z,81.58
2023-04-16T09:47:06.664Z,80.22
2023-04-16T09:49:40.813Z,80.03
2023-04-16T09:52:12.435Z,78.90
2023-04-16T09:54:39.039Z,79.30
2023-04-16T09:57:05.701Z,78.94
2023-04-16T09:59:32.545Z,78.03
2023-04-16T10:02:14.623Z,77.52
2023-04-16T10:04:49.270Z,78.04
2023-04-16T10:07:16.853Z,77.41
2023-04-16T10:09:43.574Z,77.82
2023-04-16T10:12:10.597Z,77.71
2023-04-16T10:14:37.117Z,76.69
2023-04-16T10:17:04.518Z,76.83
2023-04-16T10:19:31.938Z,76.96
2023-04-16T10:21:59.918Z,76.42
2023-04-16T10:24:26.470Z,76.35
2023-04-16T10:26:53.325Z,76.43
2023-04-16T10:29:20.448Z,76.20
2023-04-16T10:31:48.202Z,76.60
2023-04-16T10:34:15.763Z,76.97
2023-04-16T10:36:43.089Z,75.88
2023-04-16T10:39:14.750Z,76.06
2023-04-16T10:41:43.611Z,75.24
2023-04-16T10:44:10.781Z,75.62
2023-04-16T10:46:38.962Z,75.79
2023-04-16T10:49:13.696Z,75.62
2023-04-16T10:51:40.934Z,75.42
2023-04-16T10:54:23.200Z,75.41
2023-04-16T10:56:50.341Z,75.72
2023-04-16T10:59:18.668Z,75.53
2023-04-16T11:01:46.786Z,75.37
2023-04-16T11:04:36.095Z,74.93
2023-04-16T11:07:05.941Z,74.82
2023-04-16T11:09:53.553Z,73.79
2023-04-16T11:12:21.798Z,74.02
2023-04-16T11:14:50.101Z,73.18
2023-04-16T11:17:17.166Z,73.45
2023-04-16T11:19:43.881Z,72.90
2023-04-16T11:22:13.026Z,71.80
2023-04-16T11:24:39.522Z,72.04
2023-04-16T11:27:07.956Z,71.87
2023-04-16T11:29:34.607Z,72.28
2023-04-16T11:32:01.335Z,72.26
2023-04-16T11:34:27.871Z,71.09
2023-04-16T11:36:54.425Z,70.37
2023-04-16T11:39:20.916Z,70.89
2023-04-16T11:41:49.476Z,71.04
2023-04-16T11:44:22.239Z,71.24
2023-04-16T11:46:49.389Z,71.15
2023-04-16T11:49:16.116Z,71.40
2023-04-16T11:51:43.660Z,70.30
2023-04-16T11:54:17.892Z,70.34
2023-04-16T11:56:46.583Z,69.78
2023-04-16T11:59:14.592Z,69.18
2023-04-16T12:01:46.863Z,68.36
2023-04-16T12:04:14.304Z,69.81
2023-04-16T12:06:41.056Z,69.04
2023-04-16T12:09:23.515Z,68.90
2023-04-16T12:11:50.309Z,69.27
2023-04-16T12:14:16.864Z,69.30
2023-04-16T12:16:44.915Z,68.91
2023-04-16T12:19:12.654Z,67.30
2023-04-16T12:21:41.127Z,65.86
2023-04-16T12:24:09.413Z,67.47
2023-04-16T12:26:37.923Z,67.44
2023-04-16T12:29:18.664Z,68.05
2023-04-16T12:31:46.786Z,66.86
2023-04-16T12:34:13.830Z,66.52
2023-04-16T12:36:40.535Z,64.11
2023-04-16T12:39:07.426Z,64.15
2023-04-16T12:41:36.872Z,63.41
2023-04-16T12:44:05.004Z,64.66
2023-04-16T12:46:31.578Z,64.26
2023-04-16T12:48:59.729Z,62.72
2023-04-16T12:51:26.459Z,62.90
2023-04-16T12:53:53.032Z,63.16
2023-04-16T12:56:19.634Z,63.56
2023-04-16T12:58:46.162Z,62.65
2023-04-16T13:01:12.694Z,63.20
2023-04-16T13:03:39.490Z,62.50
2023-04-16T13:06:08.124Z,61.46
2023-04-16T13:08:34.640Z,59.93
2023-04-16T13:11:01.208Z,61.11
2023-04-16T13:13:27.867Z,59.86
2023-04-16T13:15:54.515Z,58.99
2023-04-16T13:18:21.088Z,59.83
2023-04-16T13:20:47.618Z,60.09
2023-04-16T13:23:15.588Z,60.58
2023-04-16T13:25:42.124Z,60.28
2023-04-16T13:28:08.677Z,58.96
2023-04-16T13:30:35.312Z,58.34
2023-04-16T13:33:02.329Z,58.49
2023-04-16T13:35:29.802Z,59.92
2023-04-16T13:37:56.348Z,59.68
2023-04-16T13:40:24.266Z,59.20
2023-04-16T13:42:52.119Z,58.14
2023-04-16T13:45:19.041Z,59.44
2023-04-16T13:47:45.897Z,59.70
2023-04-16T13:50:12.717Z,58.35
2023-04-16T13:52:39.547Z,58.32
2023-04-16T13:55:06.963Z,56.46
2023-04-16T13:57:36.636Z,57.81
2023-04-16T14:00:03.679Z,57.63
2023-04-16T14:02:31.523Z,57.18
2023-04-16T14:04:58.217Z,56.72
2023-04-16T14:07:24.879Z,56.75
2023-04-16T14:09:51.458Z,56.78
2023-04-16T14:12:18.049Z,57.48
2023-04-16T14:14:45.963Z,57.67
2023-04-16T14:17:12.505Z,57.92
2023-04-16T14:19:39.085Z,57.33
2023-04-16T14:22:06.973Z,57.21
2023-04-16T14:24:35.260Z,56.28
2023-04-16T14:27:01.825Z,57.16
2023-04-16T14:29:28.402Z,58.02
2023-04-16T14:31:56.284Z,56.30
2023-04-16T14:34:23.154Z,56.51
2023-04-16T14:36:50.259Z,57.71
2023-04-16T14:39:16.776Z,57.47
2023-04-16T14:41:43.350Z,57.44
2023-04-16T14:44:10.015Z,58.16
2023-04-16T14:46:36.573Z,58.05
2023-04-16T14:49:04.989Z,57.31
2023-04-16T14:51:31.794Z,57.15
2023-04-16T14:53:58.342Z,57.06
2023-04-16T14:56:24.872Z,57.00
2023-04-16T14:58:51.432Z,58.01
2023-04-16T15:01:18.033Z,58.14
2023-04-16T15:03:44.813Z,58.12
2023-04-16T15:06:13.837Z,58.35
2023-04-16T15:08:40.444Z,57.77
2023-04-16T15:11:07.083Z,57.04
2023-04-16T15:13:33.607Z,57.49
2023-04-16T15:16:00.838Z,57.87
2023-04-16T15:18:27.636Z,57.39
2023-04-16T15:20:54.412Z,57.33
2023-04-16T15:23:22.466Z,56.47
2023-04-16T15:25:48.976Z,56.99
2023-04-16T15:28:15.592Z,57.39
2023-04-16T15:30:42.366Z,57.05
2023-04-16T15:33:09.393Z,57.79
2023-04-16T15:35:36.279Z,58.12
2023-04-16T15:38:02.766Z,57.85
2023-04-16T15:40:31.083Z,57.71
2023-04-16T15:42:57.695Z,58.21
2023-04-16T15:45:24.236Z,58.05
2023-04-16T15:47:50.831Z,57.66
2023-04-16T15:50:17.499Z,57.57
2023-04-16T15:52:44.012Z,57.33
2023-04-16T15:55:10.589Z,58.00
2023-04-16T15:57:38.646Z,58.01
2023-04-16T16:00:07.411Z,57.75
2023-04-16T16:02:34.421Z,58.27
2023-04-16T16:05:01.190Z,58.15
2023-04-16T16:07:27.724Z,59.16
2023-04-16T16:09:54.297Z,59.14
2023-04-16T16:12:20.806Z,58.32
2023-04-16T16:14:48.651Z,58.84
2023-04-16T16:17:15.172Z,58.85
2023-04-16T16:19:41.665Z,59.88
2023-04-16T16:22:08.177Z,59.76
2023-04-16T16:24:34.706Z,59.54
2023-04-16T16:27:01.245Z,59.86
2023-04-16T16:29:27.766Z,60.20
2023-04-16T16:31:55.715Z,60.57
2023-04-16T16:34:22.312Z,60.29
2023-04-16T16:36:48.934Z,60.23
2023-04-16T16:39:15.510Z,60.38
2023-04-16T16:41:42.068Z,60.93
2023-04-16T16:44:08.716Z,61.02
2023-04-16T16:46:35.241Z,61.55
2023-04-16T16:49:03.190Z,61.34
2023-04-16T16:51:29.654Z,61.98
2023-04-16T16:53:56.193Z,62.26
2023-04-16T16:56:22.674Z,62.75
2023-04-16T16:58:49.166Z,63.27
2023-04-16T17:01:15.795Z,63.83
2023-04-16T17:03:42.463Z,64.29
2023-04-16T17:06:10.456Z,64.73
2023-04-16T17:08:37.015Z,64.85
2023-04-16T17:11:03.954Z,65.16
2023-04-16T17:13:30.547Z,65.57
2023-04-16T17:15:57.061Z,65.88
2023-04-16T17:18:23.743Z,65.78
2023-04-16T17:20:50.247Z,66.37
2023-04-16T17:23:18.120Z,66.71
2023-04-16T17:25:44.659Z,66.86
2023-04-16T17:28:11.174Z,67.40
2023-04-16T17:30:37.686Z,67.51
2023-04-16T17:33:04.661Z,67.57
2023-04-16T17:35:31.450Z,68.17
2023-04-16T17:37:57.986Z,68.45
2023-04-16T17:40:25.899Z,68.77
2023-04-16T17:42:52.481Z,69.24
2023-04-16T17:45:19.027Z,69.23
2023-04-16T17:47:45.567Z,69.57
2023-04-16T17:50:12.180Z,70.12
2023-04-16T17:52:38.938Z,70.18
2023-04-16T17:55:06.393Z,70.15
2023-04-16T17:57:34.251Z,70.49
2023-04-16T18:00:00.802Z,71.67
2023-04-16T18:02:27.489Z,71.67
2023-04-16T18:04:54.540Z,71.75
2023-04-16T18:07:21.378Z,71.63
2023-04-16T18:09:47.883Z,72.14
2023-04-16T18:12:14.817Z,72.19
2023-04-16T18:14:42.690Z,72.60
2023-04-16T18:17:09.203Z,72.83
2023-04-16T18:19:35.725Z,73.08
2023-04-16T18:22:02.323Z,72.93
2023-04-16T18:24:28.838Z,73.36
2023-04-16T18:26:55.432Z,74.03
2023-04-16T18:29:24.792Z,74.21
2023-04-16T18:31:54.548Z,74.61
2023-04-16T18:34:22.217Z,74.86
2023-04-16T18:36:48.769Z,74.92
2023-04-16T18:39:15.292Z,74.77
2023-04-16T18:41:41.813Z,75.85
2023-04-16T18:44:08.271Z,76.80
2023-04-16T18:46:34.803Z,77.00
2023-04-16T18:49:02.749Z,77.44
2023-04-16T18:51:29.282Z,77.95
2023-04-16T18:53:55.795Z,78.07
2023-04-16T18:56:22.316Z,78.64
2023-04-16T18:58:48.795Z,79.60
2023-04-16T19:01:15.344Z,80.12
2023-04-16T19:03:42.091Z,80.81
2023-04-16T19:06:10.008Z,81.74
2023-04-16T19:08:36.583Z,82.08
2023-04-16T19:11:03.292Z,82.42
2023-04-16T19:13:30.659Z,82.57
2023-04-16T19:15:57.621Z,82.84
2023-04-16T19:18:24.275Z,82.68
2023-04-16T19:20:50.867Z,82.41
2023-04-16T19:23:18.759Z,82.39
2023-04-16T19:25:45.266Z,82.67
2023-04-16T19:28:11.744Z,82.55
2023-04-16T19:30:38.239Z,82.72
2023-04-16T19:33:04.801Z,82.89
2023-04-16T19:35:31.711Z,82.65
2023-04-16T19:37:58.287Z,82.90
2023-04-16T19:40:26.284Z,82.67
2023-04-16T19:42:52.837Z,82.70
2023-04-16T19:45:19.316Z,83.18
2023-04-16T19:47:45.886Z,83.24
2023-04-16T19:50:12.408Z,83.40
2023-04-16T19:52:39.118Z,83.71
2023-04-16T19:55:06.874Z,84.00
2023-04-16T19:57:34.873Z,84.12
2023-04-16T20:00:01.486Z,84.52
2023-04-16T20:02:30.900Z,84.75
2023-04-16T20:04:57.528Z,85.02
2023-04-16T20:07:24.060Z,85.17
2023-04-16T20:09:50.578Z,85.09
2023-04-16T20:12:17.115Z,84.93
2023-04-16T20:14:45.026Z,85.14
2023-04-16T20:17:11.631Z,84.90
2023-04-16T20:19:38.185Z,85.02
2023-04-16T20:22:04.872Z,85.04
2023-04-16T20:24:31.491Z,84.83
2023-04-16T20:26:58.020Z,85.00
2023-04-16T20:29:24.544Z,85.02
2023-04-16T20:31:52.489Z,85.28
2023-04-16T20:34:19.007Z,85.40
2023-04-16T20:36:45.515Z,85.60
2023-04-16T20:39:12.623Z,85.93
2023-04-16T20:41:39.368Z,85.83
2023-04-16T20:44:05.897Z,86.12
2023-04-16T20:46:32.471Z,86.18
2023-04-16T20:49:00.401Z,86.47
2023-04-16T20:51:26.977Z,86.63
2023-04-16T20:53:53.703Z,86.59
2023-04-16T20:56:20.219Z,86.68
2023-04-16T20:58:46.760Z,87.10
2023-04-16T21:01:13.396Z,87.32
2023-04-16T21:03:40.221Z,87.34
2023-04-16T21:06:08.220Z,87.66
2023-04-16T21:08:35.290Z,88.05
2023-04-16T21:11:01.817Z,88.18
2023-04-16T21:13:28.319Z,88.02
2023-04-16T21:15:54.929Z,87.94
2023-04-16T21:18:21.492Z,88.29
2023-04-16T21:20:48.038Z,88.13
2023-04-16T21:23:15.954Z,88.06
2023-04-16T21:25:42.459Z,88.17
2023-04-16T21:28:08.976Z,88.08
2023-04-16T21:30:35.558Z,88.33
2023-04-16T21:33:02.113Z,88.49
2023-04-16T21:35:31.238Z,88.46
2023-04-16T21:37:57.806Z,88.59
2023-04-16T21:40:25.689Z,88.91
2023-04-16T21:42:52.218Z,88.84
2023-04-16T21:45:18.873Z,89.17
2023-04-16T21:47:45.403Z,88.88
2023-04-16T21:50:12.661Z,89.23
2023-04-16T21:52:39.155Z,89.11
2023-04-16T21:55:07.628Z,89.26
2023-04-16T21:57:35.493Z,89.19
2023-04-16T22:00:02.346Z,89.35
2023-04-16T22:02:30.946Z,89.35
2023-04-16T22:04:57.614Z,89.65
2023-04-16T22:07:24.223Z,89.72
2023-04-16T22:09:50.736Z,89.70
2023-04-16T22:12:17.240Z,89.58
2023-04-16T22:14:55.858Z,89.69
2023-04-16T22:17:28.838Z,89.92
2023-04-16T22:19:55.376Z,90.23
2023-04-16T22:22:21.991Z,90.22
2023-04-16T22:24:48.626Z,90.72
2023-04-16T22:27:15.221Z,91.09
2023-04-16T22:29:41.781Z,90.94
2023-04-16T22:32:09.836Z,90.93
2023-04-16T22:34:36.406Z,90.58
2023-04-16T22:37:03.012Z,91.01
2023-04-16T22:39:29.601Z,90.86
2023-04-16T22:41:56.182Z,90.89
2023-04-16T22:44:22.729Z,90.67
2023-04-16T22:46:49.568Z,90.76
2023-04-16T22:49:17.610Z,90.82
2023-04-16T22:51:44.399Z,90.66
2023-04-16T22:54:12.053Z,90.68
2023-04-16T22:56:40.747Z,90.63
2023-04-16T22:59:07.654Z,90.78
2023-04-16T23:01:34.481Z,90.59
2023-04-16T23:04:01.033Z,90.72
2023-04-16T23:06:28.947Z,91.08
2023-04-16T23:08:55.478Z,90.97
2023-04-16T23:11:22.460Z,91.25
2023-04-16T23:13:48.959Z,91.12
2023-04-16T23:16:15.571Z,91.37
2023-04-16T23:18:42.140Z,91.74
2023-04-16T23:21:08.733Z,92.02
2023-04-16T23:23:36.660Z,92.05
2023-04-16T23:26:03.680Z,91.98
2023-04-16T23:28:30.179Z,92.08
2023-04-16T23:30:56.826Z,91.94
2023-04-16T23:33:23.442Z,92.46
2023-04-16T23:35:49.982Z,92.32
2023-04-16T23:38:16.500Z,92.33
2023-04-16T23:40:44.520Z,92.39
2023-04-16T23:43:11.011Z,92.58
2023-04-16T23:45:37.715Z,92.53
2023-04-16T23:48:04.483Z,92.58
2023-04-16T23:50:31.133Z,92.67
2023-04-16T23:52:57.708Z,92.53
2023-04-16T23:55:24.708Z,92.67
2023-04-16T23:57:52.582Z,92.36
